Algerita, Texas
Current Conditions -  °F | °C
As of 2:15 PM on Thursday 23 Oct 2014 (Local Time) from KBBD Reporting Station
Overcast Overcast  
Wind Chill: 26°   Ceiling: 5500
Heat Index: 26°   Visibility: 10mi
Dew Point: 13°   Wind: 5mph
Humidity: 44%   Direction: NA
Pressure: 30.11"   Gusts: NA
Location:  31.0718°N, 98.8001°W
Report Text: KBBD 231915Z AUTO VRB04KT 10SM OVC055 26/13 A3011 RMK
Loading
Personal Weather Stations






























Interactive Weather Map
Tropical Storm Tracking
New forecast layout! Learn more

10-Day Weather Forecast

Advertisements
Track Severe Weather on mobile